Huvudsida
METAR-TAF:

METAR-TAF

Flygplatser :

Shanghai-Pudong, Kina

Shanghai Pudong International Airport

latitud: 31-07N, longitud: 121-46E, höjd: 4 m

Aktuellt väderrapport

Denna rapport gjordes för 39 minuter sedan, klockan 00:30 UTC
Vind 10 kt från nordost
Temperatur 8°C
Fuktighet 76%
Tryck 1024 hPa
Sikt 10 km eller mer
Mulet på en höjd av 2300 ft

METAR: ZSPD 200030Z 04005MPS 9999 OVC023 08/04 Q1024 NOSIG

Tid: 09:09 (01:09 UTC)

Väderprognos

Denna rapport gjordes för 3 timmar och 58 minuter sedan, klockan 21:11 UTC
Prognos gäller från 20 kl. 00 UTC till 20 kl. 24 UTC
Vind 6 kt från nordost
Sikt: 5000 m
Brutna moln på en höjd av 1000 ft
fuktdis

TAF: ZSPD 192111Z 2000/2024 04003MPS 5000 BR BKN010 TX10/2006Z TN07/2021Z

Aktuella väderrapporter och prognoser från 4000 flygplatser (METAR- och TAF-rapporter).

De tillgängliga stationerna syns som gula och röda prickar på kartan.

För musen över prickarna för att se namnen på stationerna.

Klicka sedan för att få väderrapporter och prognoser.

För att ändra kartan: Klicka på de gröna knapparna med ett svart kors på för att zooma in; den gröna knappen med ett streck på för att zooma ut; eller på de gröna pilarna för angränsande kartor.


METAR-TAF: